Artesia Camp, New Mexico
Current Conditions -  °F | °C
As of 4:15 PM on Tuesday 25 Nov 2014 (Local Time) from KALM Reporting Station
Clear Clear  
Wind Chill: 10°   Ceiling: Unl
Heat Index: 10°   Visibility: 10mi
Dew Point: -18°   Wind: 3mph
Humidity: 13%   Direction: 340°NNW
Pressure: 30.29"   Gusts: NA
Location:  32.7847°N, 105.644°W
Report Text: KALM 252315Z AUTO 34003KT 10SM CLR 10/M18 A3029 RMK AO2
Loading
Personal Weather Stations






























Interactive Weather Map New forecast layout! Learn more

10-Day Weather Forecast

Advertisements
Track Severe Weather on mobile